Terminal Aerodrome Forecast
Issued by NWS Memphis, TN

Home | Current Version | Previous Version | Text Only | Print | Product List | Glossary On
Versions: 1 2 3 4 5 6 7 8 9 10 11 12
000
FTUS44 KMEG 290536
TAFMKL
TAF
KMKL 290536Z 2906/3006 18004KT P6SM BKN250
     FM291500 18010KT P6SM BKN035
     FM292000 18010G15KT P6SM VCTS BKN050CB BKN100
     FM300100 16006KT P6SM SCT050 BKN100
     FM300400 16006KT P6SM BKN035 OVC060=

USA.gov is the U.S. government's official web portal to all federal, state and local government web resources and services.